sensor_id;sensor_type;location;lat;lon;timestamp;P1;durP1;ratioP1;P2;durP2;ratioP2
21266;SDS011;10791;53.108;18.326;2024-01-30T00:00:17;20.47;;;8.47;;
21266;SDS011;10791;53.108;18.326;2024-01-30T00:05:40;18.17;;;8.30;;
21266;SDS011;10791;53.108;18.326;2024-01-30T00:10:43;21.20;;;9.43;;
21266;SDS011;10791;53.108;18.326;2024-01-30T00:15:47;17.00;;;9.53;;
21266;SDS011;10791;53.108;18.326;2024-01-30T00:20:51;34.97;;;13.80;;
21266;SDS011;10791;53.108;18.326;2024-01-30T00:25:54;26.30;;;11.37;;
21266;SDS011;10791;53.108;18.326;2024-01-30T00:30:59;19.23;;;9.80;;
21266;SDS011;10791;53.108;18.326;2024-01-30T00:36:02;20.07;;;9.33;;
21266;SDS011;10791;53.108;18.326;2024-01-30T00:41:05;17.40;;;8.53;;
21266;SDS011;10791;53.108;18.326;2024-01-30T00:46:10;22.13;;;10.00;;
21266;SDS011;10791;53.108;18.326;2024-01-30T00:51:14;14.40;;;7.70;;
21266;SDS011;10791;53.108;18.326;2024-01-30T00:56:17;26.27;;;8.33;;
21266;SDS011;10791;53.108;18.326;2024-01-30T01:01:21;21.57;;;8.23;;
21266;SDS011;10791;53.108;18.326;2024-01-30T01:06:25;20.23;;;9.03;;
21266;SDS011;10791;53.108;18.326;2024-01-30T01:11:29;23.40;;;8.83;;
21266;SDS011;10791;53.108;18.326;2024-01-30T01:16:33;20.73;;;8.20;;
21266;SDS011;10791;53.108;18.326;2024-01-30T01:21:37;17.87;;;7.87;;
21266;SDS011;10791;53.108;18.326;2024-01-30T01:26:40;25.70;;;9.53;;
21266;SDS011;10791;53.108;18.326;2024-01-30T01:31:44;16.80;;;9.23;;
21266;SDS011;10791;53.108;18.326;2024-01-30T01:36:48;13.67;;;6.33;;
21266;SDS011;10791;53.108;18.326;2024-01-30T01:41:52;20.80;;;7.37;;
21266;SDS011;10791;53.108;18.326;2024-01-30T01:46:55;19.47;;;8.80;;
21266;SDS011;10791;53.108;18.326;2024-01-30T01:52:00;21.43;;;7.77;;
21266;SDS011;10791;53.108;18.326;2024-01-30T01:57:04;18.67;;;7.03;;
21266;SDS011;10791;53.108;18.326;2024-01-30T02:02:08;13.53;;;6.37;;
21266;SDS011;10791;53.108;18.326;2024-01-30T02:07:14;28.37;;;9.57;;
21266;SDS011;10791;53.108;18.326;2024-01-30T02:12:18;15.50;;;8.07;;
21266;SDS011;10791;53.108;18.326;2024-01-30T02:17:21;30.93;;;11.57;;
21266;SDS011;10791;53.108;18.326;2024-01-30T02:22:26;21.27;;;9.30;;
21266;SDS011;10791;53.108;18.326;2024-01-30T02:27:30;14.33;;;7.97;;
21266;SDS011;10791;53.108;18.326;2024-01-30T02:32:33;16.63;;;7.20;;
21266;SDS011;10791;53.108;18.326;2024-01-30T02:37:37;21.03;;;8.40;;
21266;SDS011;10791;53.108;18.326;2024-01-30T02:42:40;16.43;;;8.60;;
21266;SDS011;10791;53.108;18.326;2024-01-30T02:47:45;23.73;;;8.13;;
21266;SDS011;10791;53.108;18.326;2024-01-30T02:52:48;16.50;;;6.27;;
21266;SDS011;10791;53.108;18.326;2024-01-30T02:57:52;12.90;;;6.33;;
21266;SDS011;10791;53.108;18.326;2024-01-30T03:02:55;16.17;;;7.23;;
21266;SDS011;10791;53.108;18.326;2024-01-30T03:07:59;18.57;;;8.03;;
21266;SDS011;10791;53.108;18.326;2024-01-30T03:13:03;16.30;;;8.10;;
21266;SDS011;10791;53.108;18.326;2024-01-30T03:18:06;15.63;;;7.30;;
21266;SDS011;10791;53.108;18.326;2024-01-30T03:23:10;15.47;;;6.97;;
21266;SDS011;10791;53.108;18.326;2024-01-30T03:28:13;19.40;;;8.37;;
21266;SDS011;10791;53.108;18.326;2024-01-30T03:33:17;19.10;;;8.83;;
21266;SDS011;10791;53.108;18.326;2024-01-30T03:38:20;13.90;;;6.57;;
21266;SDS011;10791;53.108;18.326;2024-01-30T03:43:24;13.63;;;7.20;;
21266;SDS011;10791;53.108;18.326;2024-01-30T03:48:27;10.37;;;6.43;;
21266;SDS011;10791;53.108;18.326;2024-01-30T03:53:30;19.83;;;6.63;;
21266;SDS011;10791;53.108;18.326;2024-01-30T03:58:34;20.10;;;8.33;;
21266;SDS011;10791;53.108;18.326;2024-01-30T04:03:37;19.40;;;7.77;;
21266;SDS011;10791;53.108;18.326;2024-01-30T04:08:41;14.47;;;7.30;;
21266;SDS011;10791;53.108;18.326;2024-01-30T04:13:44;14.50;;;6.57;;
21266;SDS011;10791;53.108;18.326;2024-01-30T04:18:49;19.37;;;8.40;;
21266;SDS011;10791;53.108;18.326;2024-01-30T04:23:54;17.77;;;7.07;;
21266;SDS011;10791;53.108;18.326;2024-01-30T04:28:57;8.17;;;5.97;;
21266;SDS011;10791;53.108;18.326;2024-01-30T04:34:00;12.07;;;6.00;;
21266;SDS011;10791;53.108;18.326;2024-01-30T04:39:03;14.17;;;6.77;;
21266;SDS011;10791;53.108;18.326;2024-01-30T04:44:07;17.47;;;6.77;;
21266;SDS011;10791;53.108;18.326;2024-01-30T04:49:10;7.07;;;4.73;;
21266;SDS011;10791;53.108;18.326;2024-01-30T04:54:13;12.70;;;5.30;;
21266;SDS011;10791;53.108;18.326;2024-01-30T04:59:17;12.37;;;6.40;;
21266;SDS011;10791;53.108;18.326;2024-01-30T05:04:32;15.03;;;6.07;;
21266;SDS011;10791;53.108;18.326;2024-01-30T05:09:35;12.03;;;6.10;;
21266;SDS011;10791;53.108;18.326;2024-01-30T05:14:39;9.90;;;5.37;;
21266;SDS011;10791;53.108;18.326;2024-01-30T05:19:43;18.47;;;5.97;;
21266;SDS011;10791;53.108;18.326;2024-01-30T05:24:46;14.93;;;6.67;;
21266;SDS011;10791;53.108;18.326;2024-01-30T05:29:49;17.87;;;7.50;;
21266;SDS011;10791;53.108;18.326;2024-01-30T05:34:53;12.77;;;6.80;;
21266;SDS011;10791;53.108;18.326;2024-01-30T05:39:56;12.50;;;7.03;;
21266;SDS011;10791;53.108;18.326;2024-01-30T05:45:00;18.20;;;6.47;;
21266;SDS011;10791;53.108;18.326;2024-01-30T05:50:03;12.87;;;6.93;;
21266;SDS011;10791;53.108;18.326;2024-01-30T05:55:07;14.53;;;7.33;;
21266;SDS011;10791;53.108;18.326;2024-01-30T06:00:12;12.70;;;6.17;;
21266;SDS011;10791;53.108;18.326;2024-01-30T06:05:15;16.73;;;6.40;;
21266;SDS011;10791;53.108;18.326;2024-01-30T06:10:19;11.07;;;6.20;;
21266;SDS011;10791;53.108;18.326;2024-01-30T06:15:22;13.73;;;5.20;;
21266;SDS011;10791;53.108;18.326;2024-01-30T06:20:26;8.33;;;4.43;;
21266;SDS011;10791;53.108;18.326;2024-01-30T06:25:29;15.77;;;5.97;;
21266;SDS011;10791;53.108;18.326;2024-01-30T06:30:32;19.77;;;7.87;;
21266;SDS011;10791;53.108;18.326;2024-01-30T06:35:36;11.93;;;6.23;;
21266;SDS011;10791;53.108;18.326;2024-01-30T06:40:46;16.53;;;6.13;;
21266;SDS011;10791;53.108;18.326;2024-01-30T06:45:49;14.87;;;5.90;;
21266;SDS011;10791;53.108;18.326;2024-01-30T06:50:54;14.17;;;6.97;;
21266;SDS011;10791;53.108;18.326;2024-01-30T06:55:58;12.93;;;6.27;;
21266;SDS011;10791;53.108;18.326;2024-01-30T07:01:01;14.93;;;6.20;;
21266;SDS011;10791;53.108;18.326;2024-01-30T07:06:05;15.03;;;6.53;;
21266;SDS011;10791;53.108;18.326;2024-01-30T07:11:08;22.80;;;9.17;;
21266;SDS011;10791;53.108;18.326;2024-01-30T07:16:11;30.60;;;11.20;;
21266;SDS011;10791;53.108;18.326;2024-01-30T07:21:15;30.33;;;10.10;;
21266;SDS011;10791;53.108;18.326;2024-01-30T07:26:19;16.83;;;6.97;;
21266;SDS011;10791;53.108;18.326;2024-01-30T07:31:22;19.77;;;7.73;;
21266;SDS011;10791;53.108;18.326;2024-01-30T07:36:26;21.73;;;8.63;;
21266;SDS011;10791;53.108;18.326;2024-01-30T07:41:31;18.47;;;7.80;;
21266;SDS011;10791;53.108;18.326;2024-01-30T07:46:34;16.00;;;6.80;;
21266;SDS011;10791;53.108;18.326;2024-01-30T07:51:38;17.80;;;7.93;;
21266;SDS011;10791;53.108;18.326;2024-01-30T07:56:43;14.93;;;7.33;;
21266;SDS011;10791;53.108;18.326;2024-01-30T08:01:46;17.37;;;8.27;;
21266;SDS011;10791;53.108;18.326;2024-01-30T08:06:50;18.97;;;8.90;;
21266;SDS011;10791;53.108;18.326;2024-01-30T08:11:54;18.20;;;8.03;;
21266;SDS011;10791;53.108;18.326;2024-01-30T08:16:58;26.63;;;12.50;;
21266;SDS011;10791;53.108;18.326;2024-01-30T08:22:03;19.07;;;9.70;;
21266;SDS011;10791;53.108;18.326;2024-01-30T08:27:06;15.03;;;7.77;;
21266;SDS011;10791;53.108;18.326;2024-01-30T08:32:12;18.63;;;7.27;;
21266;SDS011;10791;53.108;18.326;2024-01-30T08:37:15;17.17;;;7.60;;
21266;SDS011;10791;53.108;18.326;2024-01-30T08:42:19;13.77;;;7.33;;
21266;SDS011;10791;53.108;18.326;2024-01-30T08:47:25;18.23;;;7.30;;
21266;SDS011;10791;53.108;18.326;2024-01-30T08:52:29;12.07;;;6.67;;
21266;SDS011;10791;53.108;18.326;2024-01-30T08:57:32;13.47;;;7.57;;
21266;SDS011;10791;53.108;18.326;2024-01-30T09:02:36;15.83;;;8.10;;
21266;SDS011;10791;53.108;18.326;2024-01-30T09:07:39;18.03;;;7.63;;
21266;SDS011;10791;53.108;18.326;2024-01-30T09:12:43;21.10;;;8.43;;
21266;SDS011;10791;53.108;18.326;2024-01-30T09:17:47;17.83;;;7.90;;
21266;SDS011;10791;53.108;18.326;2024-01-30T09:22:50;19.70;;;7.73;;
21266;SDS011;10791;53.108;18.326;2024-01-30T09:27:54;23.57;;;10.03;;
21266;SDS011;10791;53.108;18.326;2024-01-30T09:32:57;17.37;;;7.87;;
21266;SDS011;10791;53.108;18.326;2024-01-30T09:38:00;17.30;;;8.37;;
21266;SDS011;10791;53.108;18.326;2024-01-30T09:43:04;20.33;;;8.47;;
21266;SDS011;10791;53.108;18.326;2024-01-30T09:48:07;15.97;;;7.53;;
21266;SDS011;10791;53.108;18.326;2024-01-30T09:53:11;13.43;;;7.77;;
21266;SDS011;10791;53.108;18.326;2024-01-30T09:58:17;18.63;;;8.53;;
21266;SDS011;10791;53.108;18.326;2024-01-30T10:03:21;13.17;;;7.23;;
21266;SDS011;10791;53.108;18.326;2024-01-30T10:08:26;18.13;;;9.43;;
21266;SDS011;10791;53.108;18.326;2024-01-30T10:13:30;17.37;;;8.97;;
21266;SDS011;10791;53.108;18.326;2024-01-30T10:18:33;21.37;;;9.57;;
21266;SDS011;10791;53.108;18.326;2024-01-30T10:23:38;16.53;;;7.70;;
21266;SDS011;10791;53.108;18.326;2024-01-30T10:28:41;17.30;;;8.03;;
21266;SDS011;10791;53.108;18.326;2024-01-30T10:33:45;19.57;;;9.40;;
21266;SDS011;10791;53.108;18.326;2024-01-30T10:38:48;17.13;;;9.13;;
21266;SDS011;10791;53.108;18.326;2024-01-30T10:43:58;18.03;;;9.30;;
21266;SDS011;10791;53.108;18.326;2024-01-30T10:49:09;17.23;;;8.47;;
21266;SDS011;10791;53.108;18.326;2024-01-30T10:54:14;15.80;;;8.03;;
21266;SDS011;10791;53.108;18.326;2024-01-30T10:59:20;17.50;;;9.07;;
21266;SDS011;10791;53.108;18.326;2024-01-30T11:04:26;20.73;;;8.23;;
21266;SDS011;10791;53.108;18.326;2024-01-30T11:09:30;19.27;;;8.43;;
21266;SDS011;10791;53.108;18.326;2024-01-30T11:14:39;12.70;;;7.07;;
21266;SDS011;10791;53.108;18.326;2024-01-30T11:19:43;15.07;;;7.07;;
21266;SDS011;10791;53.108;18.326;2024-01-30T11:24:46;17.10;;;7.90;;
21266;SDS011;10791;53.108;18.326;2024-01-30T11:29:50;16.73;;;7.50;;
21266;SDS011;10791;53.108;18.326;2024-01-30T11:34:55;16.83;;;8.47;;
21266;SDS011;10791;53.108;18.326;2024-01-30T11:39:59;16.80;;;8.67;;
21266;SDS011;10791;53.108;18.326;2024-01-30T11:45:03;16.23;;;8.20;;
21266;SDS011;10791;53.108;18.326;2024-01-30T11:50:07;22.53;;;8.97;;
21266;SDS011;10791;53.108;18.326;2024-01-30T11:55:14;15.30;;;7.50;;
21266;SDS011;10791;53.108;18.326;2024-01-30T12:00:18;19.83;;;8.53;;
21266;SDS011;10791;53.108;18.326;2024-01-30T12:05:24;16.60;;;8.03;;
21266;SDS011;10791;53.108;18.326;2024-01-30T12:10:28;16.93;;;9.17;;
21266;SDS011;10791;53.108;18.326;2024-01-30T12:15:32;22.57;;;10.93;;
21266;SDS011;10791;53.108;18.326;2024-01-30T12:20:35;28.37;;;12.50;;
21266;SDS011;10791;53.108;18.326;2024-01-30T12:25:39;22.80;;;11.60;;
21266;SDS011;10791;53.108;18.326;2024-01-30T12:30:43;19.47;;;10.20;;
21266;SDS011;10791;53.108;18.326;2024-01-30T12:35:47;23.43;;;10.60;;
21266;SDS011;10791;53.108;18.326;2024-01-30T12:41:06;14.27;;;7.97;;
21266;SDS011;10791;53.108;18.326;2024-01-30T12:46:09;21.27;;;7.97;;
21266;SDS011;10791;53.108;18.326;2024-01-30T12:51:13;15.40;;;8.27;;
21266;SDS011;10791;53.108;18.326;2024-01-30T12:56:17;27.27;;;10.00;;
21266;SDS011;10791;53.108;18.326;2024-01-30T13:01:21;20.87;;;10.40;;
21266;SDS011;10791;53.108;18.326;2024-01-30T13:06:25;19.33;;;9.27;;
21266;SDS011;10791;53.108;18.326;2024-01-30T13:11:28;17.97;;;8.93;;
21266;SDS011;10791;53.108;18.326;2024-01-30T13:16:31;21.07;;;10.57;;
21266;SDS011;10791;53.108;18.326;2024-01-30T13:21:35;21.17;;;9.43;;
21266;SDS011;10791;53.108;18.326;2024-01-30T13:26:38;19.67;;;9.43;;
21266;SDS011;10791;53.108;18.326;2024-01-30T13:31:42;19.10;;;8.97;;
21266;SDS011;10791;53.108;18.326;2024-01-30T13:36:47;20.27;;;9.80;;
21266;SDS011;10791;53.108;18.326;2024-01-30T13:41:51;21.53;;;9.37;;
21266;SDS011;10791;53.108;18.326;2024-01-30T13:46:54;19.47;;;9.83;;
21266;SDS011;10791;53.108;18.326;2024-01-30T13:51:58;24.40;;;10.63;;
21266;SDS011;10791;53.108;18.326;2024-01-30T13:57:02;17.73;;;9.97;;
21266;SDS011;10791;53.108;18.326;2024-01-30T14:02:05;31.87;;;13.20;;
21266;SDS011;10791;53.108;18.326;2024-01-30T14:07:11;22.17;;;10.93;;
21266;SDS011;10791;53.108;18.326;2024-01-30T14:12:14;30.63;;;13.77;;
21266;SDS011;10791;53.108;18.326;2024-01-30T14:17:18;39.70;;;17.97;;
21266;SDS011;10791;53.108;18.326;2024-01-30T14:22:21;24.17;;;12.10;;
21266;SDS011;10791;53.108;18.326;2024-01-30T14:27:25;25.23;;;11.73;;
21266;SDS011;10791;53.108;18.326;2024-01-30T14:32:28;22.53;;;11.23;;
21266;SDS011;10791;53.108;18.326;2024-01-30T14:37:32;22.43;;;11.70;;
21266;SDS011;10791;53.108;18.326;2024-01-30T14:42:35;23.67;;;11.17;;
21266;SDS011;10791;53.108;18.326;2024-01-30T14:47:40;27.00;;;12.13;;
21266;SDS011;10791;53.108;18.326;2024-01-30T14:52:44;28.83;;;13.53;;
21266;SDS011;10791;53.108;18.326;2024-01-30T14:57:48;30.43;;;14.53;;
21266;SDS011;10791;53.108;18.326;2024-01-30T15:02:52;25.37;;;13.37;;
21266;SDS011;10791;53.108;18.326;2024-01-30T15:07:55;27.90;;;13.70;;
21266;SDS011;10791;53.108;18.326;2024-01-30T15:13:00;29.63;;;11.57;;
21266;SDS011;10791;53.108;18.326;2024-01-30T15:18:04;31.37;;;11.93;;
21266;SDS011;10791;53.108;18.326;2024-01-30T15:23:08;31.20;;;12.33;;
21266;SDS011;10791;53.108;18.326;2024-01-30T15:28:11;32.80;;;12.20;;
21266;SDS011;10791;53.108;18.326;2024-01-30T15:33:16;28.50;;;12.70;;
21266;SDS011;10791;53.108;18.326;2024-01-30T15:38:20;32.70;;;13.70;;
21266;SDS011;10791;53.108;18.326;2024-01-30T15:43:24;28.87;;;12.30;;
21266;SDS011;10791;53.108;18.326;2024-01-30T15:48:29;29.50;;;13.53;;
21266;SDS011;10791;53.108;18.326;2024-01-30T15:53:32;31.33;;;14.00;;
21266;SDS011;10791;53.108;18.326;2024-01-30T15:58:36;27.57;;;12.23;;
21266;SDS011;10791;53.108;18.326;2024-01-30T16:03:40;29.60;;;12.93;;
21266;SDS011;10791;53.108;18.326;2024-01-30T16:08:43;27.37;;;13.20;;
21266;SDS011;10791;53.108;18.326;2024-01-30T16:13:47;31.37;;;13.30;;
21266;SDS011;10791;53.108;18.326;2024-01-30T16:18:55;43.30;;;14.93;;
21266;SDS011;10791;53.108;18.326;2024-01-30T16:23:59;28.83;;;13.57;;
21266;SDS011;10791;53.108;18.326;2024-01-30T16:29:03;31.20;;;12.33;;
21266;SDS011;10791;53.108;18.326;2024-01-30T16:34:07;32.33;;;12.90;;
21266;SDS011;10791;53.108;18.326;2024-01-30T16:39:11;25.80;;;12.67;;
21266;SDS011;10791;53.108;18.326;2024-01-30T16:44:14;28.17;;;10.90;;
21266;SDS011;10791;53.108;18.326;2024-01-30T16:49:18;27.63;;;12.93;;
21266;SDS011;10791;53.108;18.326;2024-01-30T16:54:22;38.43;;;15.17;;
21266;SDS011;10791;53.108;18.326;2024-01-30T16:59:25;32.23;;;14.07;;
21266;SDS011;10791;53.108;18.326;2024-01-30T17:04:28;29.53;;;11.83;;
21266;SDS011;10791;53.108;18.326;2024-01-30T17:09:33;26.40;;;11.20;;
21266;SDS011;10791;53.108;18.326;2024-01-30T17:14:36;29.03;;;13.07;;
21266;SDS011;10791;53.108;18.326;2024-01-30T17:19:42;24.43;;;13.33;;
21266;SDS011;10791;53.108;18.326;2024-01-30T17:24:47;39.33;;;14.47;;
21266;SDS011;10791;53.108;18.326;2024-01-30T17:29:52;32.20;;;14.13;;
21266;SDS011;10791;53.108;18.326;2024-01-30T17:34:57;33.00;;;16.20;;
21266;SDS011;10791;53.108;18.326;2024-01-30T17:40:00;41.13;;;16.13;;
21266;SDS011;10791;53.108;18.326;2024-01-30T17:45:04;46.20;;;19.77;;
21266;SDS011;10791;53.108;18.326;2024-01-30T17:50:09;41.73;;;19.00;;
21266;SDS011;10791;53.108;18.326;2024-01-30T17:55:14;44.17;;;17.80;;
21266;SDS011;10791;53.108;18.326;2024-01-30T18:00:19;34.17;;;12.93;;
21266;SDS011;10791;53.108;18.326;2024-01-30T18:05:23;26.20;;;10.87;;
21266;SDS011;10791;53.108;18.326;2024-01-30T18:10:27;31.30;;;11.30;;
21266;SDS011;10791;53.108;18.326;2024-01-30T18:15:31;24.60;;;12.10;;
21266;SDS011;10791;53.108;18.326;2024-01-30T18:20:36;33.27;;;14.37;;
21266;SDS011;10791;53.108;18.326;2024-01-30T18:25:39;40.23;;;16.70;;
21266;SDS011;10791;53.108;18.326;2024-01-30T18:30:43;37.13;;;16.10;;
21266;SDS011;10791;53.108;18.326;2024-01-30T18:35:46;40.90;;;16.67;;
21266;SDS011;10791;53.108;18.326;2024-01-30T18:40:50;28.83;;;13.53;;
21266;SDS011;10791;53.108;18.326;2024-01-30T18:45:54;27.70;;;11.93;;
21266;SDS011;10791;53.108;18.326;2024-01-30T18:50:58;27.37;;;12.40;;
21266;SDS011;10791;53.108;18.326;2024-01-30T18:56:03;32.70;;;13.63;;
21266;SDS011;10791;53.108;18.326;2024-01-30T19:01:08;26.10;;;12.53;;
21266;SDS011;10791;53.108;18.326;2024-01-30T19:06:12;32.40;;;12.67;;
21266;SDS011;10791;53.108;18.326;2024-01-30T19:11:17;31.70;;;14.10;;
21266;SDS011;10791;53.108;18.326;2024-01-30T19:16:24;36.53;;;14.73;;
21266;SDS011;10791;53.108;18.326;2024-01-30T19:21:28;39.80;;;14.63;;
21266;SDS011;10791;53.108;18.326;2024-01-30T19:26:31;34.20;;;15.67;;
21266;SDS011;10791;53.108;18.326;2024-01-30T19:31:36;26.57;;;13.00;;
21266;SDS011;10791;53.108;18.326;2024-01-30T19:36:40;25.97;;;12.57;;
21266;SDS011;10791;53.108;18.326;2024-01-30T19:41:44;35.43;;;15.50;;
21266;SDS011;10791;53.108;18.326;2024-01-30T19:46:48;49.10;;;17.67;;
21266;SDS011;10791;53.108;18.326;2024-01-30T19:51:53;50.57;;;18.97;;
21266;SDS011;10791;53.108;18.326;2024-01-30T19:56:59;34.47;;;16.60;;
21266;SDS011;10791;53.108;18.326;2024-01-30T20:02:06;37.90;;;14.37;;
21266;SDS011;10791;53.108;18.326;2024-01-30T20:07:16;45.40;;;16.17;;
21266;SDS011;10791;53.108;18.326;2024-01-30T20:12:21;41.30;;;17.40;;
21266;SDS011;10791;53.108;18.326;2024-01-30T20:17:26;38.93;;;15.63;;
21266;SDS011;10791;53.108;18.326;2024-01-30T20:22:33;40.97;;;17.77;;
21266;SDS011;10791;53.108;18.326;2024-01-30T20:27:39;60.33;;;22.60;;
21266;SDS011;10791;53.108;18.326;2024-01-30T20:32:44;91.17;;;29.37;;
21266;SDS011;10791;53.108;18.326;2024-01-30T20:37:49;60.77;;;19.97;;
21266;SDS011;10791;53.108;18.326;2024-01-30T20:42:54;40.10;;;17.93;;
21266;SDS011;10791;53.108;18.326;2024-01-30T20:47:58;31.53;;;12.27;;
21266;SDS011;10791;53.108;18.326;2024-01-30T20:53:01;27.07;;;10.73;;
21266;SDS011;10791;53.108;18.326;2024-01-30T20:58:06;25.40;;;10.70;;
21266;SDS011;10791;53.108;18.326;2024-01-30T21:03:11;20.17;;;8.43;;
21266;SDS011;10791;53.108;18.326;2024-01-30T21:08:15;20.57;;;10.57;;
21266;SDS011;10791;53.108;18.326;2024-01-30T21:13:19;26.97;;;11.30;;
21266;SDS011;10791;53.108;18.326;2024-01-30T21:18:23;22.97;;;10.70;;
21266;SDS011;10791;53.108;18.326;2024-01-30T21:23:28;44.37;;;12.47;;
21266;SDS011;10791;53.108;18.326;2024-01-30T21:28:31;29.07;;;10.83;;
21266;SDS011;10791;53.108;18.326;2024-01-30T21:33:36;20.27;;;9.80;;
21266;SDS011;10791;53.108;18.326;2024-01-30T21:38:40;26.57;;;11.17;;
21266;SDS011;10791;53.108;18.326;2024-01-30T21:43:44;30.13;;;11.63;;
21266;SDS011;10791;53.108;18.326;2024-01-30T21:48:49;42.37;;;20.50;;
21266;SDS011;10791;53.108;18.326;2024-01-30T21:53:53;100.63;;;28.83;;
21266;SDS011;10791;53.108;18.326;2024-01-30T21:58:57;91.53;;;33.57;;
21266;SDS011;10791;53.108;18.326;2024-01-30T22:04:01;94.30;;;28.20;;
21266;SDS011;10791;53.108;18.326;2024-01-30T22:09:07;35.30;;;16.40;;
21266;SDS011;10791;53.108;18.326;2024-01-30T22:14:11;48.33;;;18.17;;
21266;SDS011;10791;53.108;18.326;2024-01-30T22:19:14;34.60;;;14.90;;
21266;SDS011;10791;53.108;18.326;2024-01-30T22:24:19;36.83;;;14.03;;
21266;SDS011;10791;53.108;18.326;2024-01-30T22:29:22;37.23;;;12.10;;
21266;SDS011;10791;53.108;18.326;2024-01-30T22:34:26;31.37;;;12.80;;
21266;SDS011;10791;53.108;18.326;2024-01-30T22:39:30;23.43;;;11.47;;
21266;SDS011;10791;53.108;18.326;2024-01-30T22:44:34;29.40;;;10.77;;
21266;SDS011;10791;53.108;18.326;2024-01-30T22:49:38;35.90;;;13.63;;
21266;SDS011;10791;53.108;18.326;2024-01-30T22:54:41;25.93;;;10.77;;
21266;SDS011;10791;53.108;18.326;2024-01-30T22:59:45;29.27;;;10.00;;
21266;SDS011;10791;53.108;18.326;2024-01-30T23:04:48;34.83;;;12.50;;
21266;SDS011;10791;53.108;18.326;2024-01-30T23:09:53;38.27;;;14.73;;
21266;SDS011;10791;53.108;18.326;2024-01-30T23:14:56;34.83;;;11.97;;
21266;SDS011;10791;53.108;18.326;2024-01-30T23:20:00;38.60;;;13.40;;
21266;SDS011;10791;53.108;18.326;2024-01-30T23:25:04;37.13;;;13.53;;
21266;SDS011;10791;53.108;18.326;2024-01-30T23:30:08;36.23;;;12.90;;
21266;SDS011;10791;53.108;18.326;2024-01-30T23:35:13;36.77;;;13.43;;
21266;SDS011;10791;53.108;18.326;2024-01-30T23:40:16;32.23;;;12.90;;
21266;SDS011;10791;53.108;18.326;2024-01-30T23:45:19;28.10;;;11.60;;
21266;SDS011;10791;53.108;18.326;2024-01-30T23:50:22;30.97;;;12.87;;
21266;SDS011;10791;53.108;18.326;2024-01-30T23:55:26;27.40;;;12.57;;
